createdAt,value
2018-07-31T00:02:05.048Z,101068.05
2018-07-31T00:05:10.289Z,101063.94
2018-07-31T00:08:16.260Z,101064.86
2018-07-31T00:11:22.882Z,101065.50
2018-07-31T00:14:28.806Z,101067.12
2018-07-31T00:17:36.029Z,101067.09
2018-07-31T00:20:41.730Z,101063.77
2018-07-31T00:23:46.830Z,101066.20
2018-07-31T00:26:52.307Z,101056.48
2018-07-31T00:29:59.133Z,101067.61
2018-07-31T00:33:05.285Z,101066.94
2018-07-31T00:36:11.116Z,101071.48
2018-07-31T00:39:16.060Z,101068.67
2018-07-31T00:42:22.265Z,101056.37
2018-07-31T00:45:29.205Z,101058.66
2018-07-31T00:48:34.757Z,101055.36
2018-07-31T00:51:41.144Z,101049.08
2018-07-31T00:54:47.043Z,101042.50
2018-07-31T00:57:53.250Z,101043.96
2018-07-31T01:00:59.501Z,101043.29
2018-07-31T01:04:06.302Z,101037.98
2018-07-31T01:07:12.345Z,101038.29
2018-07-31T01:10:18.305Z,101037.77
2018-07-31T01:13:23.657Z,101031.48
2018-07-31T01:16:28.866Z,101025.24
2018-07-31T01:19:34.995Z,101026.70
2018-07-31T01:22:42.015Z,101031.76
2018-07-31T01:25:48.559Z,101029.41
2018-07-31T01:28:54.049Z,101020.05
2018-07-31T01:31:59.631Z,101016.77
2018-07-31T01:35:06.649Z,101025.41
2018-07-31T01:38:12.455Z,101017.48
2018-07-31T01:41:19.721Z,101022.05
2018-07-31T01:44:25.493Z,101016.77
2018-07-31T01:47:31.750Z,101014.16
2018-07-31T01:50:37.628Z,101015.28
2018-07-31T01:53:43.253Z,101009.30
2018-07-31T01:56:49.345Z,101007.81
2018-07-31T01:59:55.289Z,100994.05
2018-07-31T02:03:01.454Z,100997.78
2018-07-31T02:06:07.409Z,100990.56
2018-07-31T02:09:14.397Z,100991.50
2018-07-31T02:12:20.578Z,100988.36
2018-07-31T02:15:26.247Z,100992.92
2018-07-31T02:18:31.477Z,100998.80
2018-07-31T02:21:36.938Z,100992.89
2018-07-31T02:24:42.998Z,100992.06
2018-07-31T02:27:48.626Z,100988.06
2018-07-31T02:30:53.531Z,100985.74
2018-07-31T02:34:00.052Z,100982.45
2018-07-31T02:37:06.877Z,100984.73
2018-07-31T02:40:14.458Z,100980.09
2018-07-31T02:43:20.275Z,100977.63
2018-07-31T02:46:26.869Z,100970.08
2018-07-31T02:49:32.894Z,100974.97
2018-07-31T02:52:39.099Z,100973.63
2018-07-31T02:55:44.510Z,100975.53
2018-07-31T02:58:50.655Z,100975.19
2018-07-31T03:01:56.597Z,100969.77
2018-07-31T03:05:02.538Z,100971.71
2018-07-31T03:08:08.824Z,100967.59
2018-07-31T03:11:16.053Z,100976.88
2018-07-31T03:14:21.571Z,100962.63
2018-07-31T03:17:27.302Z,100964.08
2018-07-31T03:20:32.483Z,100960.45
2018-07-31T03:23:38.967Z,100963.89
2018-07-31T03:26:44.502Z,100954.05
2018-07-31T03:29:50.899Z,100957.64
2018-07-31T03:32:56.851Z,100955.17
2018-07-31T03:36:03.005Z,100955.29
2018-07-31T03:39:10.062Z,100950.55
2018-07-31T03:42:16.153Z,100947.25
2018-07-31T03:45:22.206Z,100953.45
2018-07-31T03:48:28.910Z,100956.22
2018-07-31T03:51:34.909Z,100953.26
2018-07-31T03:54:42.353Z,100952.59
2018-07-31T03:57:48.424Z,100954.72
2018-07-31T04:00:55.406Z,100950.59
2018-07-31T04:04:01.376Z,100955.91
2018-07-31T04:07:07.480Z,100951.31
2018-07-31T04:10:14.058Z,100946.56
2018-07-31T04:13:20.797Z,100949.67
2018-07-31T04:16:25.969Z,100950.63
2018-07-31T04:19:33.023Z,100945.06
2018-07-31T04:22:39.276Z,100943.76
2018-07-31T04:25:45.276Z,100942.59
2018-07-31T04:28:51.210Z,100941.29
2018-07-31T04:31:57.190Z,100935.72
2018-07-31T04:35:04.039Z,100934.08
2018-07-31T04:38:11.613Z,100938.33
2018-07-31T04:41:18.619Z,100939.79
2018-07-31T04:44:25.411Z,100944.05
2018-07-31T04:47:32.778Z,100942.74
2018-07-31T04:50:39.498Z,100942.26
2018-07-31T04:53:45.225Z,100937.52
2018-07-31T04:56:52.173Z,100947.48
2018-07-31T04:59:59.541Z,100941.77
2018-07-31T05:03:05.286Z,100944.24
2018-07-31T05:06:11.302Z,100939.02
2018-07-31T05:09:17.185Z,100944.58
2018-07-31T05:12:24.046Z,100946.56
2018-07-31T05:15:30.390Z,100948.21
2018-07-31T05:18:36.348Z,100948.06
2018-07-31T05:21:42.314Z,100950.20
2018-07-31T05:24:49.102Z,100952.25
2018-07-31T05:27:55.169Z,100946.87
2018-07-31T05:31:02.078Z,100951.33
2018-07-31T05:34:07.815Z,100951.85
2018-07-31T05:37:13.313Z,100956.82
2018-07-31T05:40:19.430Z,100946.55
2018-07-31T05:43:25.457Z,100949.36
2018-07-31T05:46:32.757Z,100953.80
2018-07-31T05:49:37.894Z,100953.69
2018-07-31T05:52:43.563Z,100949.95
2018-07-31T05:55:49.006Z,100953.25
2018-07-31T05:58:55.151Z,100953.77
2018-07-31T06:02:01.002Z,100953.51
2018-07-31T06:05:06.406Z,100956.99
2018-07-31T06:08:12.218Z,100956.69
2018-07-31T06:11:18.334Z,100963.80
2018-07-31T06:14:23.988Z,100963.02
2018-07-31T06:17:29.714Z,100961.74
2018-07-31T06:20:36.622Z,100962.48
2018-07-31T06:23:42.582Z,100959.41
2018-07-31T06:26:47.723Z,100957.69
2018-07-31T06:29:53.965Z,100961.68
2018-07-31T06:32:59.760Z,100963.42
2018-07-31T06:36:06.307Z,100960.20
2018-07-31T06:39:11.491Z,100964.38
2018-07-31T06:42:16.297Z,100961.52
2018-07-31T06:45:21.444Z,100963.67
2018-07-31T06:48:26.691Z,100960.96
2018-07-31T06:51:33.630Z,100970.83
2018-07-31T06:54:39.566Z,100971.56
2018-07-31T06:57:45.416Z,100972.89
2018-07-31T07:00:51.277Z,100968.50
2018-07-31T07:03:58.117Z,100967.58
2018-07-31T07:07:04.034Z,100972.20
2018-07-31T07:10:10.094Z,100969.81
2018-07-31T07:13:15.931Z,100976.30
2018-07-31T07:16:21.161Z,100984.70
2018-07-31T07:19:27.230Z,100983.61
2018-07-31T07:22:34.070Z,100982.98
2018-07-31T07:25:40.520Z,100980.09
2018-07-31T07:28:47.418Z,100980.16
2018-07-31T07:31:54.350Z,100983.95
2018-07-31T07:35:00.118Z,100981.55
2018-07-31T07:38:05.267Z,100979.59
2018-07-31T07:41:11.508Z,100977.68
2018-07-31T07:44:17.260Z,100980.72
2018-07-31T07:47:23.325Z,100980.41
2018-07-31T07:50:28.401Z,100980.45
2018-07-31T07:53:33.521Z,100983.95
2018-07-31T07:56:38.649Z,100982.34
2018-07-31T07:59:43.922Z,100984.98
2018-07-31T08:02:49.959Z,100978.78
2018-07-31T08:05:56.030Z,100981.28
2018-07-31T08:09:02.011Z,100979.34
2018-07-31T08:12:07.166Z,100979.56
2018-07-31T08:15:13.109Z,100977.94
2018-07-31T08:18:18.539Z,100975.13
2018-07-31T08:21:24.413Z,100980.41
2018-07-31T08:24:30.771Z,100983.21
2018-07-31T08:27:37.578Z,100973.85
2018-07-31T08:30:44.399Z,100987.17
2018-07-31T08:33:51.512Z,100980.45
2018-07-31T08:36:57.763Z,100986.54
2018-07-31T08:40:04.750Z,100988.01
2018-07-31T08:43:11.471Z,100982.53
2018-07-31T08:46:17.817Z,100986.63
2018-07-31T08:49:24.577Z,100982.67
2018-07-31T08:52:30.604Z,100989.06
2018-07-31T08:55:37.432Z,100983.14
2018-07-31T08:58:43.293Z,100988.70
2018-07-31T09:01:48.589Z,100989.00
2018-07-31T09:04:54.997Z,100978.23
2018-07-31T09:08:01.113Z,100984.28
2018-07-31T09:11:07.150Z,100978.98
2018-07-31T09:14:13.080Z,100975.80
2018-07-31T09:17:19.754Z,100975.13
2018-07-31T09:20:26.022Z,100971.91
2018-07-31T09:23:32.834Z,100965.41
2018-07-31T09:26:38.885Z,100961.72
2018-07-31T09:29:45.566Z,100964.92
2018-07-31T09:32:57.300Z,100955.27
2018-07-31T09:36:03.754Z,100961.61
2018-07-31T09:39:10.790Z,100959.20
2018-07-31T09:42:16.531Z,100961.71
2018-07-31T09:45:21.611Z,100961.10
2018-07-31T09:48:26.776Z,100961.34
2018-07-31T09:51:33.336Z,100960.38
2018-07-31T09:54:39.330Z,100958.87
2018-07-31T09:57:45.257Z,100954.32
2018-07-31T10:00:56.287Z,100958.53
2018-07-31T10:04:01.733Z,100961.77
2018-07-31T10:07:08.777Z,100960.20
2018-07-31T10:10:15.723Z,100964.77
2018-07-31T10:13:21.750Z,100958.41
2018-07-31T10:16:28.926Z,100960.50
2018-07-31T10:19:35.757Z,100968.69
2018-07-31T10:22:42.630Z,100962.01
2018-07-31T10:25:49.486Z,100967.06
2018-07-31T10:28:56.012Z,100965.67
2018-07-31T10:32:01.143Z,100961.94
2018-07-31T10:35:07.387Z,100963.84
2018-07-31T10:38:13.287Z,100968.99
2018-07-31T10:41:19.847Z,100970.39
2018-07-31T10:44:26.918Z,100963.66
2018-07-31T10:47:33.174Z,100967.16
2018-07-31T10:50:39.643Z,100972.52
2018-07-31T10:53:45.889Z,100970.14
2018-07-31T10:56:52.271Z,100977.64
2018-07-31T10:59:58.193Z,100966.47
2018-07-31T11:03:04.282Z,100972.13
2018-07-31T11:06:11.800Z,100963.44
2018-07-31T11:09:17.542Z,100966.11
2018-07-31T11:12:23.602Z,100964.84
2018-07-31T11:15:30.143Z,100967.72
2018-07-31T11:18:34.969Z,100960.33
2018-07-31T11:21:40.891Z,100958.72
2018-07-31T11:24:46.431Z,100959.31
2018-07-31T11:27:52.281Z,100960.48
2018-07-31T11:30:57.728Z,100956.22
2018-07-31T11:34:04.232Z,100955.45
2018-07-31T11:37:09.397Z,100957.49
2018-07-31T11:40:14.554Z,100954.07
2018-07-31T11:43:19.653Z,100954.08
2018-07-31T11:46:24.773Z,100955.95
2018-07-31T11:49:30.220Z,100959.52
2018-07-31T11:52:35.687Z,100955.14
2018-07-31T11:55:41.949Z,100958.74
2018-07-31T11:58:48.727Z,100952.42
2018-07-31T12:01:55.132Z,100948.78
2018-07-31T12:05:00.610Z,100951.84
2018-07-31T12:08:06.845Z,100956.13
2018-07-31T12:11:12.570Z,100952.45
2018-07-31T12:14:18.565Z,100954.93
2018-07-31T12:17:25.640Z,100944.33
2018-07-31T12:20:31.947Z,100945.75
2018-07-31T12:23:37.651Z,100952.79
2018-07-31T12:26:43.687Z,100950.55
2018-07-31T12:29:49.659Z,100956.59
2018-07-31T12:32:56.899Z,100956.69
2018-07-31T12:36:03.203Z,100955.47
2018-07-31T12:39:11.156Z,100955.77
2018-07-31T12:42:18.405Z,100958.35
2018-07-31T12:45:24.125Z,100962.64
2018-07-31T12:48:31.156Z,100963.24
2018-07-31T12:51:37.079Z,100971.72
2018-07-31T12:54:43.267Z,100971.51
2018-07-31T12:57:48.954Z,100973.04
2018-07-31T13:00:55.158Z,100969.88
2018-07-31T13:04:00.963Z,100964.27
2018-07-31T13:07:06.274Z,100959.98
2018-07-31T13:10:12.221Z,100964.16
2018-07-31T13:13:19.435Z,100957.41
2018-07-31T13:16:25.697Z,100952.61
2018-07-31T13:19:31.882Z,100946.31
2018-07-31T13:22:37.023Z,100947.12
2018-07-31T13:25:42.471Z,100948.45
2018-07-31T13:28:48.624Z,100950.09
2018-07-31T13:31:55.518Z,100948.77
2018-07-31T13:35:02.841Z,100951.82
2018-07-31T13:38:08.589Z,100958.25
2018-07-31T13:41:15.258Z,100958.75
2018-07-31T13:44:22.132Z,100948.35
2018-07-31T13:47:29.258Z,100953.35
2018-07-31T13:50:34.985Z,100954.88
2018-07-31T13:53:41.174Z,100957.02
2018-07-31T13:56:47.020Z,100952.53
2018-07-31T13:59:52.969Z,100958.05
2018-07-31T14:02:58.096Z,100953.55
2018-07-31T14:06:03.209Z,100946.72
2018-07-31T14:09:10.231Z,100940.09
2018-07-31T14:12:15.314Z,100939.88
2018-07-31T14:15:20.829Z,100944.27
2018-07-31T14:18:27.038Z,100939.09
2018-07-31T14:21:32.169Z,100940.52
2018-07-31T14:24:38.022Z,100940.61
2018-07-31T14:27:43.151Z,100942.03
2018-07-31T14:30:49.649Z,100933.56
2018-07-31T14:33:55.786Z,100926.72
2018-07-31T14:37:01.348Z,100931.86
2018-07-31T14:40:06.483Z,100936.95
2018-07-31T14:43:12.981Z,100931.56
2018-07-31T14:46:18.494Z,100933.72
2018-07-31T14:49:24.394Z,100940.13
2018-07-31T14:52:30.363Z,100936.56
2018-07-31T14:55:36.345Z,100935.03
2018-07-31T14:58:42.640Z,100932.86
2018-07-31T15:01:48.834Z,100930.12
2018-07-31T15:04:54.386Z,100930.30
2018-07-31T15:07:59.694Z,100927.72
2018-07-31T15:11:05.550Z,100931.48
2018-07-31T15:14:11.276Z,100931.75
2018-07-31T15:17:17.534Z,100932.77
2018-07-31T15:20:23.214Z,100936.64
2018-07-31T15:23:28.998Z,100932.31
2018-07-31T15:26:35.420Z,100933.84
2018-07-31T15:29:42.484Z,100942.19
2018-07-31T15:32:48.790Z,100947.92
2018-07-31T15:35:55.178Z,100947.41
2018-07-31T15:39:00.641Z,100947.19
2018-07-31T15:42:06.360Z,100949.14
2018-07-31T15:45:12.446Z,100949.27
2018-07-31T15:48:18.745Z,100951.55
2018-07-31T15:51:25.369Z,100948.25
2018-07-31T15:54:32.404Z,100948.08
2018-07-31T15:57:38.428Z,100950.00
2018-07-31T16:00:44.563Z,100951.72
2018-07-31T16:03:51.237Z,100945.66
2018-07-31T16:06:57.478Z,100947.30
2018-07-31T16:10:04.665Z,100940.13
2018-07-31T16:13:10.302Z,100944.12
2018-07-31T16:16:17.457Z,100950.77
2018-07-31T16:19:23.415Z,100944.75
2018-07-31T16:22:29.412Z,100953.24
2018-07-31T16:25:35.519Z,100935.77
2018-07-31T16:28:41.609Z,100954.05
2018-07-31T16:31:46.765Z,100958.86
2018-07-31T16:34:53.205Z,100960.70
2018-07-31T16:37:59.415Z,100961.41
2018-07-31T16:41:04.952Z,100962.73
2018-07-31T16:44:11.651Z,100965.61
2018-07-31T16:47:17.957Z,100966.12
2018-07-31T16:50:23.951Z,100967.66
2018-07-31T16:53:31.662Z,100972.38
2018-07-31T16:56:37.905Z,100972.00
2018-07-31T16:59:44.275Z,100979.77
2018-07-31T17:02:49.437Z,100986.84
2018-07-31T17:05:56.878Z,100982.10
2018-07-31T17:09:02.830Z,100987.33
2018-07-31T17:12:09.039Z,100997.27
2018-07-31T17:15:14.771Z,101003.92
2018-07-31T17:18:21.133Z,101002.11
2018-07-31T17:21:27.162Z,101019.47
2018-07-31T17:24:33.829Z,101025.72
2018-07-31T17:27:39.963Z,101042.70
2018-07-31T17:30:46.866Z,101053.40
2018-07-31T17:33:53.674Z,101053.98
2018-07-31T17:37:00.965Z,101068.27
2018-07-31T17:40:07.365Z,101087.64
2018-07-31T17:43:14.133Z,101087.89
2018-07-31T17:46:20.281Z,101092.41
2018-07-31T17:49:25.985Z,101094.39
2018-07-31T17:52:32.005Z,101097.86
2018-07-31T17:55:38.373Z,101105.97
2018-07-31T17:58:44.466Z,101109.66
2018-07-31T18:01:50.118Z,101106.70
2018-07-31T18:04:55.251Z,101117.82
2018-07-31T18:08:02.396Z,101124.92
2018-07-31T18:11:09.391Z,101134.90
2018-07-31T18:14:16.862Z,101147.47
2018-07-31T18:17:22.124Z,101142.17
2018-07-31T18:20:27.474Z,101150.44
2018-07-31T18:23:33.401Z,101156.53
2018-07-31T18:26:41.218Z,101161.80
2018-07-31T18:29:46.721Z,101171.52
2018-07-31T18:32:57.466Z,101167.83
2018-07-31T18:36:03.555Z,101173.58
2018-07-31T18:39:14.086Z,101181.59
2018-07-31T18:42:19.096Z,101179.70
2018-07-31T18:45:25.160Z,101187.39
2018-07-31T18:48:30.934Z,101189.78
2018-07-31T18:51:37.982Z,101203.42
2018-07-31T18:54:43.795Z,101210.59
2018-07-31T18:57:50.648Z,101213.80
2018-07-31T19:00:56.601Z,101218.48
2018-07-31T19:04:02.873Z,101219.36
2018-07-31T19:07:09.609Z,101226.32
2018-07-31T19:10:15.592Z,101232.18
2018-07-31T19:13:20.778Z,101235.36
2018-07-31T19:16:27.200Z,101238.20
2018-07-31T19:19:32.961Z,101237.59
2018-07-31T19:22:39.855Z,101246.67
2018-07-31T19:25:46.042Z,101244.41
2018-07-31T19:28:51.881Z,101250.20
2018-07-31T19:31:59.010Z,101247.27
2018-07-31T19:35:05.154Z,101252.72
2018-07-31T19:38:10.654Z,101255.89
2018-07-31T19:41:15.999Z,101252.91
2018-07-31T19:44:22.133Z,101255.05
2018-07-31T19:47:27.914Z,101260.16
2018-07-31T19:50:34.725Z,101257.53
2018-07-31T19:53:40.993Z,101264.80
2018-07-31T19:56:48.278Z,101267.42
2018-07-31T19:59:53.438Z,101274.17
2018-07-31T20:02:58.864Z,101285.47
2018-07-31T20:06:04.890Z,101283.17
2018-07-31T20:09:15.525Z,101285.95
2018-07-31T20:12:21.038Z,101288.72
2018-07-31T20:15:26.876Z,101288.69
2018-07-31T20:18:33.529Z,101304.97
2018-07-31T20:21:39.809Z,101312.33
2018-07-31T20:24:44.789Z,101320.84
2018-07-31T20:27:50.223Z,101320.30
2018-07-31T20:30:56.716Z,101329.80
2018-07-31T20:34:25.802Z,101328.92
2018-07-31T20:37:43.958Z,101334.61
2018-07-31T20:40:49.444Z,101332.78
2018-07-31T20:43:55.442Z,101339.47
2018-07-31T20:47:01.776Z,101337.44
2018-07-31T20:50:08.720Z,101346.94
2018-07-31T20:53:13.996Z,101349.19
2018-07-31T20:56:19.735Z,101348.34
2018-07-31T20:59:25.567Z,101345.20
2018-07-31T21:02:31.785Z,101356.43
2018-07-31T21:05:38.302Z,101353.08
2018-07-31T21:08:44.021Z,101353.70
2018-07-31T21:11:51.556Z,101367.27
2018-07-31T21:14:57.782Z,101374.79
2018-07-31T21:18:03.469Z,101377.73
2018-07-31T21:21:10.011Z,101376.35
2018-07-31T21:24:16.258Z,101376.99
2018-07-31T21:27:21.457Z,101376.63
2018-07-31T21:30:26.658Z,101387.56
2018-07-31T21:33:32.980Z,101386.03
2018-07-31T21:36:38.669Z,101382.84
2018-07-31T21:39:44.316Z,101388.41
2018-07-31T21:42:50.017Z,101380.98
2018-07-31T21:45:55.135Z,101387.48
2018-07-31T21:49:00.336Z,101391.23
2018-07-31T21:52:05.505Z,101395.47
2018-07-31T21:55:10.958Z,101394.21
2018-07-31T21:58:17.002Z,101396.13
2018-07-31T22:01:23.180Z,101399.87
2018-07-31T22:04:28.762Z,101392.08
2018-07-31T22:07:35.832Z,101389.26
2018-07-31T22:10:43.044Z,101396.94
2018-07-31T22:13:49.850Z,101401.78
2018-07-31T22:16:56.490Z,101400.09
2018-07-31T22:20:01.692Z,101415.27
2018-07-31T22:23:08.229Z,101420.62
2018-07-31T22:26:14.373Z,101419.11
2018-07-31T22:29:20.106Z,101412.63
2018-07-31T22:32:25.942Z,101413.40
2018-07-31T22:35:31.037Z,101424.78
2018-07-31T22:38:36.783Z,101433.28
2018-07-31T22:41:42.598Z,101437.80
2018-07-31T22:44:47.706Z,101428.39
2018-07-31T22:47:52.919Z,101430.45
2018-07-31T22:50:58.197Z,101433.84
2018-07-31T22:54:04.337Z,101424.44
2018-07-31T22:57:09.489Z,101419.48
2018-07-31T23:00:15.910Z,101424.19
2018-07-31T23:03:21.643Z,101424.67
2018-07-31T23:06:26.468Z,101423.98
2018-07-31T23:09:32.929Z,101402.93
2018-07-31T23:12:39.543Z,101408.60
2018-07-31T23:15:44.635Z,101418.06
2018-07-31T23:18:49.742Z,101426.75
2018-07-31T23:21:55.871Z,101433.08
2018-07-31T23:25:02.021Z,101430.05
2018-07-31T23:28:07.250Z,101422.82
2018-07-31T23:31:13.051Z,101428.80
2018-07-31T23:34:19.089Z,101419.42
2018-07-31T23:37:25.393Z,101416.61
2018-07-31T23:40:30.533Z,101428.20
2018-07-31T23:43:35.641Z,101435.86
2018-07-31T23:46:40.770Z,101437.76
2018-07-31T23:49:45.878Z,101444.59
2018-07-31T23:52:51.039Z,101449.63
2018-07-31T23:55:57.501Z,101440.25
2018-07-31T23:59:04.238Z,101449.67
